• Join FlightAware (Why Join?)
  • Login
  • US Flag 
05:56AM EST


 

Airport Tracker/Info


-or-


 

Live Flight TrackerFlight Track Log ✈ N28295 ✈ 24-Jul-2013 ✈ 2G9 - KFME

Flight Track Log - Related Links

Times and Time Zones

All times are in EDT time to prevent confusion due to time zone crossing. See the N28295 flight status page for this flight to view local times or setup timezone preferences in your user account.

Time Position Orientation Groundspeed Altitude Reporting Facility
EDT Latitude Longitude Course Direction KTS MPH feet Rate Location/Type
02:32PM 39.9883 -78.9275 119° Southeast 112 129 4,900  Level Cleveland Center
02:33PM 39.9689 -78.8819 119° Southeast 142 163 4,900  Level Cleveland Center
02:34PM 39.9558 -78.8336 109° East 147 169 4,900  Level Cleveland Center
02:36PM 39.9406 -78.7906 115° Southeast 140 161 4,900 -60 Level Cleveland Center
02:37PM 39.9231 -78.7478 118° Southeast 136 157 4,800  Descending Cleveland Center
02:37PM 39.9058 -78.7103 121° Southeast 136 157 4,900  Climbing Cleveland Center
02:38PM 39.8883 -78.6594 114° Southeast 138 159 4,900  Level Cleveland Center
02:40PM 39.8686 -78.6111 118° Southeast 141 162 4,900  Level Cleveland Center
02:40PM 39.8514 -78.5711 119° Southeast 142 163 4,900  Level Cleveland Center
02:41PM 39.8339 -78.5283 118° Southeast 143 165 4,900 -60 Level Cleveland Center
02:42PM 39.8122 -78.4806 121° Southeast 141 162 4,800 -60 Descending Cleveland Center
02:44PM 39.7811 -78.3994 117° Southeast 172 198 4,800 60 Level Washington Center
02:45PM 39.7653 -78.3583 117° Southeast 148 170 5,000 60 Climbing Washington Center
02:46PM 39.7433 -78.3117 121° Southeast 141 162 5,000  Level Washington Center
02:47PM 39.7236 -78.2706 122° Southeast 141 162 5,000  Level Washington Center
02:48PM 39.7058 -78.2239 116° Southeast 141 162 5,000  Level Washington Center
02:49PM 39.6881 -78.1803 118° Southeast 141 162 5,000  Level Washington Center
02:50PM 39.6681 -78.1364 121° Southeast 141 162 5,000  Level Washington Center
02:51PM 39.6522 -78.0928 115° Southeast 141 162 5,000  Level Washington Center
02:52PM 39.6325 -78.0489 120° Southeast 141 162 5,000  Level Washington Center
02:53PM 39.6167 -78.0053 115° Southeast 136 157 5,000  Level Washington Center
02:54PM 39.5967 -77.9614 121° Southeast 136 157 5,000  Level Washington Center
02:55PM 39.5767 -77.9150 119° Southeast 141 162 5,000  Level Washington Center
02:56PM 39.5567 -77.8714 121° Southeast 141 162 5,000  Level Washington Center
02:57PM 39.5367 -77.8250 119° Southeast 141 162 5,000  Level Washington Center
02:58PM 39.5189 -77.7786 116° Southeast 141 162 5,000  Level Washington Center
03:00PM 39.4833 -77.7000 120° Southeast 146 168 5,000  Level Potomac TRACON
03:01PM 39.4667 -77.6500 113° Southeast 142 163 5,000  Level Potomac TRACON
03:02PM 39.4667 -77.6167 90° East 141 162 5,000  Level Potomac TRACON
03:03PM 39.4500 -77.5667 113° Southeast 142 163 5,000  Level Potomac TRACON
03:04PM 39.4500 -77.5167 90° East 142 163 5,000 -180 Level Potomac TRACON
03:05PM 39.4333 -77.4667 113° Southeast 133 153 4,700 -600 Descending Potomac TRACON
03:06PM 39.4167 -77.4167 113° Southeast 148 170 3,900 -480 Descending Potomac TRACON
03:07PM 39.3833 -77.3833 142° Southeast 136 157 3,900  Level Potomac TRACON
03:08PM 39.3667 -77.3333 113° Southeast 140 161 3,900  Level Potomac TRACON
03:09PM 39.3500 -77.3000 123° Southeast 140 161 3,900 -180 Level Potomac TRACON
03:10PM 39.3333 -77.2500 113° Southeast 142 163 3,600 -780 Descending Potomac TRACON
03:11PM 39.3000 -77.2167 142° Southeast 152 175 2,500 -600 Descending Potomac TRACON
03:12PM 39.2833 -77.1667 113° Southeast 146 168 2,500 -60 Level Potomac TRACON
03:13PM 39.2667 -77.1333 123° Southeast 142 163 2,400 -120 Descending Potomac TRACON
03:14PM 39.2500 -77.0833 113° Southeast 140 161 2,300 -300 Descending Potomac TRACON
03:15PM 39.2167 -77.0333 131° Southeast 145 167 1,900 -240 Descending Potomac TRACON
03:16PM 39.2000 -77.0000 123° Southeast 144 166 1,900  Level Potomac TRACON
03:17PM 39.1833 -76.9500 113° Southeast 143 165 1,900  Level Potomac TRACON
03:18PM 39.1667 -76.9167 123° Southeast 142 163 1,900 -120 Level Potomac TRACON
03:19PM 39.1333 -76.8667 131° Southeast 149 171 1,700 -360 Descending Potomac TRACON
03:20PM 39.1000 -76.8333 142° Southeast 137 158 1,200 -420 Descending Potomac TRACON
03:21PM 39.0833 -76.8000 123° Southeast 98 113 900 -300 Descending Potomac TRACON
03:23PM 39.0854 -76.7594 117° Southeast  Level Estimated
03:30PM 39.0854 -76.7594 117° Southeast  Level Estimated
03:31PM 39.0854 -76.7594 117° Southeast  Level Estimated
03:32PM 39.0854 -76.7594 117° Southeast  Level Estimated
03:33PM 39.0854 -76.7594 117° Southeast  Level Estimated